Middleton Island, Alaska
Current Conditions -  °F | °C
As of 3:36 PM on Tuesday 25 Nov 2014 (Local Time) from PAMD Reporting Station
Overcast Overcast  
Wind Chill:   Ceiling: 2400
Heat Index:   Visibility: 10mi
Dew Point:   Wind: 0mph
Humidity: 81%   Direction: NA
Pressure: 30.2"   Gusts: NA
Location:  59.43°N, 146.33°W
Report Text: PAMD 260036Z 00000KT 10SM OVC024 06/03 A3020 RMK AO1
Loading
Personal Weather Stations






























Interactive Weather Map New forecast layout! Learn more

10-Day Weather Forecast

Advertisements
Track Severe Weather on mobile